sensor_id;sensor_type;location;lat;lon;timestamp;P1;durP1;ratioP1;P2;durP2;ratioP2
13704;SDS011;6924;52.122;9.952;2024-02-16T00:00:03;3.57;;;1.23;;
13704;SDS011;6924;52.122;9.952;2024-02-16T00:02:30;3.03;;;1.20;;
13704;SDS011;6924;52.122;9.952;2024-02-16T00:04:57;1.30;;;1.03;;
13704;SDS011;6924;52.122;9.952;2024-02-16T00:07:23;1.27;;;0.70;;
13704;SDS011;6924;52.122;9.952;2024-02-16T00:09:50;2.20;;;0.87;;
13704;SDS011;6924;52.122;9.952;2024-02-16T00:12:16;1.93;;;1.20;;
13704;SDS011;6924;52.122;9.952;2024-02-16T00:14:43;1.60;;;0.80;;
13704;SDS011;6924;52.122;9.952;2024-02-16T00:17:12;1.90;;;1.00;;
13704;SDS011;6924;52.122;9.952;2024-02-16T00:19:38;0.97;;;0.80;;
13704;SDS011;6924;52.122;9.952;2024-02-16T00:22:05;2.40;;;1.00;;
13704;SDS011;6924;52.122;9.952;2024-02-16T00:24:32;1.50;;;0.90;;
13704;SDS011;6924;52.122;9.952;2024-02-16T00:26:58;0.83;;;0.83;;
13704;SDS011;6924;52.122;9.952;2024-02-16T00:29:25;1.63;;;0.70;;
13704;SDS011;6924;52.122;9.952;2024-02-16T00:31:51;1.77;;;0.77;;
13704;SDS011;6924;52.122;9.952;2024-02-16T00:34:20;2.83;;;0.93;;
13704;SDS011;6924;52.122;9.952;2024-02-16T00:36:46;3.37;;;0.90;;
13704;SDS011;6924;52.122;9.952;2024-02-16T00:39:12;3.80;;;1.30;;
13704;SDS011;6924;52.122;9.952;2024-02-16T00:41:39;1.00;;;0.80;;
13704;SDS011;6924;52.122;9.952;2024-02-16T00:44:05;2.50;;;1.03;;
13704;SDS011;6924;52.122;9.952;2024-02-16T00:46:31;0.93;;;0.87;;
13704;SDS011;6924;52.122;9.952;2024-02-16T00:48:58;2.00;;;0.80;;
13704;SDS011;6924;52.122;9.952;2024-02-16T00:51:25;2.00;;;0.63;;
13704;SDS011;6924;52.122;9.952;2024-02-16T00:53:52;1.83;;;0.70;;
13704;SDS011;6924;52.122;9.952;2024-02-16T00:56:18;0.90;;;0.83;;
13704;SDS011;6924;52.122;9.952;2024-02-16T00:58:45;0.77;;;0.77;;
13704;SDS011;6924;52.122;9.952;2024-02-16T01:01:11;0.80;;;0.73;;
13704;SDS011;6924;52.122;9.952;2024-02-16T01:03:39;1.00;;;0.67;;
13704;SDS011;6924;52.122;9.952;2024-02-16T01:06:05;1.00;;;0.83;;
13704;SDS011;6924;52.122;9.952;2024-02-16T01:08:35;2.77;;;1.10;;
13704;SDS011;6924;52.122;9.952;2024-02-16T01:11:01;0.97;;;0.87;;
13704;SDS011;6924;52.122;9.952;2024-02-16T01:13:28;0.80;;;0.80;;
13704;SDS011;6924;52.122;9.952;2024-02-16T01:15:54;0.97;;;0.80;;
13704;SDS011;6924;52.122;9.952;2024-02-16T01:18:21;1.53;;;1.00;;
13704;SDS011;6924;52.122;9.952;2024-02-16T01:20:47;1.57;;;0.90;;
13704;SDS011;6924;52.122;9.952;2024-02-16T01:23:14;2.07;;;0.83;;
13704;SDS011;6924;52.122;9.952;2024-02-16T01:25:41;0.97;;;0.73;;
13704;SDS011;6924;52.122;9.952;2024-02-16T01:28:08;0.80;;;0.70;;
13704;SDS011;6924;52.122;9.952;2024-02-16T01:30:37;2.43;;;0.73;;
13704;SDS011;6924;52.122;9.952;2024-02-16T01:33:03;2.10;;;1.33;;
13704;SDS011;6924;52.122;9.952;2024-02-16T01:35:31;0.90;;;0.80;;
13704;SDS011;6924;52.122;9.952;2024-02-16T01:37:57;0.70;;;0.70;;
13704;SDS011;6924;52.122;9.952;2024-02-16T01:40:23;1.97;;;0.83;;
13704;SDS011;6924;52.122;9.952;2024-02-16T01:42:52;1.60;;;1.07;;
13704;SDS011;6924;52.122;9.952;2024-02-16T01:45:18;2.10;;;0.90;;
13704;SDS011;6924;52.122;9.952;2024-02-16T01:47:46;1.27;;;0.80;;
13704;SDS011;6924;52.122;9.952;2024-02-16T01:50:15;1.33;;;0.80;;
13704;SDS011;6924;52.122;9.952;2024-02-16T01:52:43;1.30;;;0.80;;
13704;SDS011;6924;52.122;9.952;2024-02-16T01:55:11;1.90;;;0.80;;
13704;SDS011;6924;52.122;9.952;2024-02-16T01:57:38;1.23;;;0.80;;
13704;SDS011;6924;52.122;9.952;2024-02-16T02:00:07;2.10;;;1.10;;
13704;SDS011;6924;52.122;9.952;2024-02-16T02:02:33;1.47;;;1.10;;
13704;SDS011;6924;52.122;9.952;2024-02-16T02:05:00;2.33;;;0.80;;
13704;SDS011;6924;52.122;9.952;2024-02-16T02:07:27;3.27;;;1.20;;
13704;SDS011;6924;52.122;9.952;2024-02-16T02:09:53;1.20;;;0.90;;
13704;SDS011;6924;52.122;9.952;2024-02-16T02:12:20;1.23;;;0.80;;
13704;SDS011;6924;52.122;9.952;2024-02-16T02:14:47;1.10;;;0.70;;
13704;SDS011;6924;52.122;9.952;2024-02-16T02:17:15;1.67;;;1.57;;
13704;SDS011;6924;52.122;9.952;2024-02-16T02:19:41;1.27;;;0.83;;
13704;SDS011;6924;52.122;9.952;2024-02-16T02:22:11;1.07;;;0.60;;
13704;SDS011;6924;52.122;9.952;2024-02-16T02:24:40;2.03;;;0.67;;
13704;SDS011;6924;52.122;9.952;2024-02-16T02:27:06;3.43;;;1.13;;
13704;SDS011;6924;52.122;9.952;2024-02-16T02:29:33;1.47;;;0.83;;
13704;SDS011;6924;52.122;9.952;2024-02-16T02:31:59;1.00;;;0.80;;
13704;SDS011;6924;52.122;9.952;2024-02-16T02:34:26;0.90;;;0.80;;
13704;SDS011;6924;52.122;9.952;2024-02-16T02:36:52;2.03;;;1.00;;
13704;SDS011;6924;52.122;9.952;2024-02-16T02:39:20;1.77;;;0.80;;
13704;SDS011;6924;52.122;9.952;2024-02-16T02:41:47;0.70;;;0.70;;
13704;SDS011;6924;52.122;9.952;2024-02-16T02:44:13;1.23;;;0.90;;
13704;SDS011;6924;52.122;9.952;2024-02-16T02:46:39;1.33;;;0.83;;
13704;SDS011;6924;52.122;9.952;2024-02-16T02:49:06;2.57;;;0.80;;
13704;SDS011;6924;52.122;9.952;2024-02-16T02:51:33;0.90;;;0.60;;
13704;SDS011;6924;52.122;9.952;2024-02-16T02:53:59;2.97;;;1.00;;
13704;SDS011;6924;52.122;9.952;2024-02-16T02:56:27;1.57;;;0.80;;
13704;SDS011;6924;52.122;9.952;2024-02-16T02:58:53;2.00;;;0.87;;
13704;SDS011;6924;52.122;9.952;2024-02-16T03:01:20;1.90;;;0.90;;
13704;SDS011;6924;52.122;9.952;2024-02-16T03:03:47;0.67;;;0.60;;
13704;SDS011;6924;52.122;9.952;2024-02-16T03:06:16;3.67;;;0.70;;
13704;SDS011;6924;52.122;9.952;2024-02-16T03:08:43;1.57;;;0.67;;
13704;SDS011;6924;52.122;9.952;2024-02-16T03:11:09;2.07;;;1.10;;
13704;SDS011;6924;52.122;9.952;2024-02-16T03:13:38;2.17;;;0.80;;
13704;SDS011;6924;52.122;9.952;2024-02-16T03:16:05;1.50;;;1.00;;
13704;SDS011;6924;52.122;9.952;2024-02-16T03:18:32;1.10;;;0.70;;
13704;SDS011;6924;52.122;9.952;2024-02-16T03:20:59;1.63;;;0.90;;
13704;SDS011;6924;52.122;9.952;2024-02-16T03:23:26;1.17;;;0.83;;
13704;SDS011;6924;52.122;9.952;2024-02-16T03:25:53;0.83;;;0.83;;
13704;SDS011;6924;52.122;9.952;2024-02-16T03:28:19;1.60;;;1.00;;
13704;SDS011;6924;52.122;9.952;2024-02-16T03:30:47;0.67;;;0.60;;
13704;SDS011;6924;52.122;9.952;2024-02-16T03:33:14;2.33;;;0.87;;
13704;SDS011;6924;52.122;9.952;2024-02-16T03:35:40;1.33;;;0.90;;
13704;SDS011;6924;52.122;9.952;2024-02-16T03:38:07;1.93;;;0.77;;
13704;SDS011;6924;52.122;9.952;2024-02-16T03:40:33;1.33;;;0.80;;
13704;SDS011;6924;52.122;9.952;2024-02-16T03:43:00;1.23;;;0.70;;
13704;SDS011;6924;52.122;9.952;2024-02-16T03:45:26;1.40;;;0.70;;
13704;SDS011;6924;52.122;9.952;2024-02-16T03:47:54;1.87;;;1.03;;
13704;SDS011;6924;52.122;9.952;2024-02-16T03:50:20;1.07;;;0.93;;
13704;SDS011;6924;52.122;9.952;2024-02-16T03:52:47;1.97;;;0.90;;
13704;SDS011;6924;52.122;9.952;2024-02-16T03:55:13;1.13;;;0.87;;
13704;SDS011;6924;52.122;9.952;2024-02-16T03:57:40;1.03;;;0.80;;
13704;SDS011;6924;52.122;9.952;2024-02-16T04:00:07;4.30;;;1.03;;
13704;SDS011;6924;52.122;9.952;2024-02-16T04:02:34;1.40;;;0.93;;
13704;SDS011;6924;52.122;9.952;2024-02-16T04:05:02;2.30;;;0.93;;
13704;SDS011;6924;52.122;9.952;2024-02-16T04:07:29;1.17;;;0.90;;
13704;SDS011;6924;52.122;9.952;2024-02-16T04:09:55;1.20;;;0.80;;
13704;SDS011;6924;52.122;9.952;2024-02-16T04:12:22;0.53;;;0.50;;
13704;SDS011;6924;52.122;9.952;2024-02-16T04:14:48;2.17;;;1.10;;
13704;SDS011;6924;52.122;9.952;2024-02-16T04:17:15;3.63;;;1.00;;
13704;SDS011;6924;52.122;9.952;2024-02-16T04:19:42;1.80;;;1.00;;
13704;SDS011;6924;52.122;9.952;2024-02-16T04:22:10;1.00;;;0.80;;
13704;SDS011;6924;52.122;9.952;2024-02-16T04:24:36;0.70;;;0.70;;
13704;SDS011;6924;52.122;9.952;2024-02-16T04:27:02;1.13;;;0.80;;
13704;SDS011;6924;52.122;9.952;2024-02-16T04:29:29;1.90;;;1.00;;
13704;SDS011;6924;52.122;9.952;2024-02-16T04:31:55;1.80;;;0.90;;
13704;SDS011;6924;52.122;9.952;2024-02-16T04:34:22;1.30;;;0.90;;
13704;SDS011;6924;52.122;9.952;2024-02-16T04:36:48;1.43;;;0.80;;
13704;SDS011;6924;52.122;9.952;2024-02-16T04:39:16;1.60;;;0.80;;
13704;SDS011;6924;52.122;9.952;2024-02-16T04:41:44;0.90;;;0.80;;
13704;SDS011;6924;52.122;9.952;2024-02-16T04:44:11;1.27;;;0.90;;
13704;SDS011;6924;52.122;9.952;2024-02-16T04:46:37;1.73;;;0.70;;
13704;SDS011;6924;52.122;9.952;2024-02-16T04:49:04;4.00;;;1.00;;
13704;SDS011;6924;52.122;9.952;2024-02-16T04:51:31;1.23;;;0.60;;
13704;SDS011;6924;52.122;9.952;2024-02-16T04:53:57;0.70;;;0.70;;
13704;SDS011;6924;52.122;9.952;2024-02-16T04:56:25;1.57;;;0.90;;
13704;SDS011;6924;52.122;9.952;2024-02-16T04:58:51;0.97;;;0.77;;
13704;SDS011;6924;52.122;9.952;2024-02-16T05:01:18;1.07;;;0.97;;
13704;SDS011;6924;52.122;9.952;2024-02-16T05:03:44;1.10;;;0.83;;
13704;SDS011;6924;52.122;9.952;2024-02-16T05:06:10;1.10;;;0.70;;
13704;SDS011;6924;52.122;9.952;2024-02-16T05:08:37;1.43;;;0.93;;
13704;SDS011;6924;52.122;9.952;2024-02-16T05:11:03;2.60;;;1.07;;
13704;SDS011;6924;52.122;9.952;2024-02-16T05:13:32;3.20;;;0.70;;
13704;SDS011;6924;52.122;9.952;2024-02-16T05:15:58;6.37;;;1.43;;
13704;SDS011;6924;52.122;9.952;2024-02-16T05:18:25;1.80;;;0.60;;
13704;SDS011;6924;52.122;9.952;2024-02-16T05:20:52;0.97;;;0.67;;
13704;SDS011;6924;52.122;9.952;2024-02-16T05:23:18;1.10;;;0.80;;
13704;SDS011;6924;52.122;9.952;2024-02-16T05:25:45;1.50;;;0.90;;
13704;SDS011;6924;52.122;9.952;2024-02-16T05:28:11;1.60;;;0.90;;
13704;SDS011;6924;52.122;9.952;2024-02-16T05:30:40;0.80;;;0.77;;
13704;SDS011;6924;52.122;9.952;2024-02-16T05:33:06;0.90;;;0.70;;
13704;SDS011;6924;52.122;9.952;2024-02-16T05:35:32;1.53;;;0.87;;
13704;SDS011;6924;52.122;9.952;2024-02-16T05:37:59;2.33;;;0.80;;
13704;SDS011;6924;52.122;9.952;2024-02-16T05:40:32;4.03;;;1.00;;
13704;SDS011;6924;52.122;9.952;2024-02-16T05:43:10;1.23;;;0.87;;
13704;SDS011;6924;52.122;9.952;2024-02-16T05:45:37;1.10;;;1.00;;
13704;SDS011;6924;52.122;9.952;2024-02-16T05:48:05;2.20;;;0.93;;
13704;SDS011;6924;52.122;9.952;2024-02-16T05:50:32;1.03;;;0.70;;
13704;SDS011;6924;52.122;9.952;2024-02-16T05:52:58;0.80;;;0.80;;
13704;SDS011;6924;52.122;9.952;2024-02-16T05:55:24;2.37;;;1.23;;
13704;SDS011;6924;52.122;9.952;2024-02-16T05:57:51;1.10;;;0.90;;
13704;SDS011;6924;52.122;9.952;2024-02-16T06:00:18;2.00;;;1.03;;
13704;SDS011;6924;52.122;9.952;2024-02-16T06:02:46;2.50;;;0.87;;
13704;SDS011;6924;52.122;9.952;2024-02-16T06:05:14;1.10;;;0.83;;
13704;SDS011;6924;52.122;9.952;2024-02-16T06:07:40;0.73;;;0.73;;
13704;SDS011;6924;52.122;9.952;2024-02-16T06:10:07;1.20;;;0.80;;
13704;SDS011;6924;52.122;9.952;2024-02-16T06:12:36;2.80;;;0.80;;
13704;SDS011;6924;52.122;9.952;2024-02-16T06:15:03;0.87;;;0.80;;
13704;SDS011;6924;52.122;9.952;2024-02-16T06:17:29;2.40;;;0.90;;
13704;SDS011;6924;52.122;9.952;2024-02-16T06:19:56;1.37;;;0.80;;
13704;SDS011;6924;52.122;9.952;2024-02-16T06:22:24;1.00;;;0.90;;
13704;SDS011;6924;52.122;9.952;2024-02-16T06:24:50;1.43;;;1.10;;
13704;SDS011;6924;52.122;9.952;2024-02-16T06:27:16;2.87;;;1.10;;
13704;SDS011;6924;52.122;9.952;2024-02-16T06:29:43;2.73;;;0.90;;
13704;SDS011;6924;52.122;9.952;2024-02-16T06:32:10;0.90;;;0.87;;
13704;SDS011;6924;52.122;9.952;2024-02-16T06:34:37;3.37;;;1.23;;
13704;SDS011;6924;52.122;9.952;2024-02-16T06:37:04;1.47;;;1.20;;
13704;SDS011;6924;52.122;9.952;2024-02-16T06:39:31;1.10;;;1.00;;
13704;SDS011;6924;52.122;9.952;2024-02-16T06:41:58;1.93;;;0.83;;
13704;SDS011;6924;52.122;9.952;2024-02-16T06:44:25;1.13;;;1.00;;
13704;SDS011;6924;52.122;9.952;2024-02-16T06:46:51;2.13;;;0.97;;
13704;SDS011;6924;52.122;9.952;2024-02-16T06:49:18;1.27;;;1.10;;
13704;SDS011;6924;52.122;9.952;2024-02-16T06:51:44;3.40;;;1.10;;
13704;SDS011;6924;52.122;9.952;2024-02-16T06:54:10;2.13;;;1.10;;
13704;SDS011;6924;52.122;9.952;2024-02-16T06:56:38;2.10;;;0.80;;
13704;SDS011;6924;52.122;9.952;2024-02-16T06:59:05;1.03;;;0.93;;
13704;SDS011;6924;52.122;9.952;2024-02-16T07:01:31;2.10;;;0.90;;
13704;SDS011;6924;52.122;9.952;2024-02-16T07:03:57;2.70;;;1.30;;
13704;SDS011;6924;52.122;9.952;2024-02-16T07:06:24;1.80;;;1.00;;
13704;SDS011;6924;52.122;9.952;2024-02-16T07:08:51;2.37;;;0.93;;
13704;SDS011;6924;52.122;9.952;2024-02-16T07:11:17;1.90;;;1.00;;
13704;SDS011;6924;52.122;9.952;2024-02-16T07:13:47;2.00;;;1.00;;
13704;SDS011;6924;52.122;9.952;2024-02-16T07:16:13;1.87;;;0.93;;
13704;SDS011;6924;52.122;9.952;2024-02-16T07:18:40;1.87;;;1.00;;
13704;SDS011;6924;52.122;9.952;2024-02-16T07:21:07;1.17;;;1.00;;
13704;SDS011;6924;52.122;9.952;2024-02-16T07:23:34;1.30;;;1.10;;
13704;SDS011;6924;52.122;9.952;2024-02-16T07:26:00;2.07;;;0.90;;
13704;SDS011;6924;52.122;9.952;2024-02-16T07:28:27;2.07;;;0.90;;
13704;SDS011;6924;52.122;9.952;2024-02-16T07:30:55;2.63;;;1.47;;
13704;SDS011;6924;52.122;9.952;2024-02-16T07:33:21;1.87;;;1.07;;
13704;SDS011;6924;52.122;9.952;2024-02-16T07:35:49;2.07;;;1.07;;
13704;SDS011;6924;52.122;9.952;2024-02-16T07:38:16;0.90;;;0.90;;
13704;SDS011;6924;52.122;9.952;2024-02-16T07:40:42;1.33;;;0.93;;
13704;SDS011;6924;52.122;9.952;2024-02-16T07:43:10;1.40;;;0.80;;
13704;SDS011;6924;52.122;9.952;2024-02-16T07:45:37;1.30;;;0.83;;
13704;SDS011;6924;52.122;9.952;2024-02-16T07:48:06;1.17;;;0.77;;
13704;SDS011;6924;52.122;9.952;2024-02-16T07:50:33;1.93;;;1.33;;
13704;SDS011;6924;52.122;9.952;2024-02-16T07:52:59;1.23;;;1.03;;
13704;SDS011;6924;52.122;9.952;2024-02-16T07:55:26;1.17;;;0.90;;
13704;SDS011;6924;52.122;9.952;2024-02-16T07:57:52;2.53;;;1.63;;
13704;SDS011;6924;52.122;9.952;2024-02-16T08:00:19;1.00;;;0.90;;
13704;SDS011;6924;52.122;9.952;2024-02-16T08:02:45;1.13;;;1.00;;
13704;SDS011;6924;52.122;9.952;2024-02-16T08:05:13;1.33;;;0.97;;
13704;SDS011;6924;52.122;9.952;2024-02-16T08:07:40;1.13;;;0.90;;
13704;SDS011;6924;52.122;9.952;2024-02-16T08:10:07;1.10;;;0.90;;
13704;SDS011;6924;52.122;9.952;2024-02-16T08:12:34;2.83;;;0.97;;
13704;SDS011;6924;52.122;9.952;2024-02-16T08:15:02;1.03;;;0.90;;
13704;SDS011;6924;52.122;9.952;2024-02-16T08:17:28;4.50;;;0.97;;
13704;SDS011;6924;52.122;9.952;2024-02-16T08:19:55;1.90;;;0.97;;
13704;SDS011;6924;52.122;9.952;2024-02-16T08:22:23;1.53;;;0.93;;
13704;SDS011;6924;52.122;9.952;2024-02-16T08:24:49;1.13;;;0.97;;
13704;SDS011;6924;52.122;9.952;2024-02-16T08:27:16;1.63;;;0.83;;
13704;SDS011;6924;52.122;9.952;2024-02-16T08:29:42;2.00;;;0.97;;
13704;SDS011;6924;52.122;9.952;2024-02-16T08:32:09;1.13;;;1.00;;
13704;SDS011;6924;52.122;9.952;2024-02-16T08:34:35;1.87;;;1.17;;
13704;SDS011;6924;52.122;9.952;2024-02-16T08:37:02;1.77;;;1.17;;
13704;SDS011;6924;52.122;9.952;2024-02-16T08:39:31;1.03;;;0.90;;
13704;SDS011;6924;52.122;9.952;2024-02-16T08:41:59;1.57;;;0.83;;
13704;SDS011;6924;52.122;9.952;2024-02-16T08:44:25;1.30;;;0.70;;
13704;SDS011;6924;52.122;9.952;2024-02-16T08:46:53;1.10;;;1.00;;
13704;SDS011;6924;52.122;9.952;2024-02-16T08:49:19;1.83;;;0.70;;
13704;SDS011;6924;52.122;9.952;2024-02-16T08:51:46;1.10;;;1.00;;
13704;SDS011;6924;52.122;9.952;2024-02-16T08:54:13;1.00;;;0.70;;
13704;SDS011;6924;52.122;9.952;2024-02-16T08:56:40;0.93;;;0.93;;
13704;SDS011;6924;52.122;9.952;2024-02-16T08:59:07;1.20;;;1.00;;
13704;SDS011;6924;52.122;9.952;2024-02-16T09:01:34;0.90;;;0.90;;
13704;SDS011;6924;52.122;9.952;2024-02-16T09:04:01;2.00;;;1.20;;
13704;SDS011;6924;52.122;9.952;2024-02-16T09:06:27;1.70;;;1.20;;
13704;SDS011;6924;52.122;9.952;2024-02-16T09:08:54;1.23;;;1.13;;
13704;SDS011;6924;52.122;9.952;2024-02-16T09:11:21;0.97;;;0.87;;
13704;SDS011;6924;52.122;9.952;2024-02-16T09:13:49;1.07;;;0.90;;
13704;SDS011;6924;52.122;9.952;2024-02-16T09:16:16;1.10;;;1.00;;
13704;SDS011;6924;52.122;9.952;2024-02-16T09:18:42;1.20;;;1.00;;
13704;SDS011;6924;52.122;9.952;2024-02-16T09:21:09;1.37;;;0.80;;
13704;SDS011;6924;52.122;9.952;2024-02-16T09:23:35;2.40;;;1.10;;
13704;SDS011;6924;52.122;9.952;2024-02-16T09:26:02;1.80;;;1.10;;
13704;SDS011;6924;52.122;9.952;2024-02-16T09:28:29;1.97;;;0.90;;
13704;SDS011;6924;52.122;9.952;2024-02-16T09:30:57;1.10;;;0.87;;
13704;SDS011;6924;52.122;9.952;2024-02-16T09:33:24;0.90;;;0.80;;
13704;SDS011;6924;52.122;9.952;2024-02-16T09:35:51;3.27;;;1.30;;
13704;SDS011;6924;52.122;9.952;2024-02-16T09:38:18;1.07;;;0.87;;
13704;SDS011;6924;52.122;9.952;2024-02-16T09:40:45;0.80;;;0.80;;
13704;SDS011;6924;52.122;9.952;2024-02-16T09:43:21;3.20;;;1.13;;
13704;SDS011;6924;52.122;9.952;2024-02-16T09:45:51;1.00;;;0.83;;
13704;SDS011;6924;52.122;9.952;2024-02-16T09:48:20;1.87;;;1.40;;
13704;SDS011;6924;52.122;9.952;2024-02-16T09:50:47;2.77;;;1.23;;
13704;SDS011;6924;52.122;9.952;2024-02-16T09:53:14;1.10;;;1.00;;
13704;SDS011;6924;52.122;9.952;2024-02-16T09:55:42;1.20;;;0.83;;
13704;SDS011;6924;52.122;9.952;2024-02-16T09:58:09;1.10;;;1.00;;
13704;SDS011;6924;52.122;9.952;2024-02-16T10:00:42;1.63;;;1.20;;
13704;SDS011;6924;52.122;9.952;2024-02-16T10:03:08;2.87;;;1.40;;
13704;SDS011;6924;52.122;9.952;2024-02-16T10:05:37;1.90;;;1.00;;
13704;SDS011;6924;52.122;9.952;2024-02-16T10:08:10;2.63;;;1.40;;
13704;SDS011;6924;52.122;9.952;2024-02-16T10:10:38;1.93;;;1.00;;
13704;SDS011;6924;52.122;9.952;2024-02-16T10:13:05;1.20;;;1.10;;
13704;SDS011;6924;52.122;9.952;2024-02-16T10:15:33;1.57;;;0.90;;
13704;SDS011;6924;52.122;9.952;2024-02-16T10:18:00;1.17;;;0.87;;
13704;SDS011;6924;52.122;9.952;2024-02-16T10:20:27;1.17;;;1.03;;
13704;SDS011;6924;52.122;9.952;2024-02-16T10:23:07;3.13;;;1.20;;
13704;SDS011;6924;52.122;9.952;2024-02-16T10:25:34;1.43;;;0.80;;
13704;SDS011;6924;52.122;9.952;2024-02-16T10:28:03;0.90;;;0.90;;
13704;SDS011;6924;52.122;9.952;2024-02-16T10:30:34;1.50;;;1.17;;
13704;SDS011;6924;52.122;9.952;2024-02-16T10:33:01;0.97;;;0.80;;
13704;SDS011;6924;52.122;9.952;2024-02-16T10:35:28;1.50;;;1.10;;
13704;SDS011;6924;52.122;9.952;2024-02-16T10:37:56;1.33;;;1.20;;
13704;SDS011;6924;52.122;9.952;2024-02-16T10:40:25;2.17;;;1.47;;
13704;SDS011;6924;52.122;9.952;2024-02-16T10:42:53;1.93;;;0.90;;
13704;SDS011;6924;52.122;9.952;2024-02-16T10:45:20;3.00;;;1.00;;
13704;SDS011;6924;52.122;9.952;2024-02-16T10:47:47;2.83;;;1.07;;
13704;SDS011;6924;52.122;9.952;2024-02-16T10:50:14;2.90;;;0.93;;
13704;SDS011;6924;52.122;9.952;2024-02-16T10:52:41;1.93;;;0.90;;
13704;SDS011;6924;52.122;9.952;2024-02-16T10:55:11;2.43;;;1.00;;
13704;SDS011;6924;52.122;9.952;2024-02-16T10:57:42;3.10;;;1.20;;
13704;SDS011;6924;52.122;9.952;2024-02-16T11:00:09;1.57;;;1.20;;
13704;SDS011;6924;52.122;9.952;2024-02-16T11:02:54;2.40;;;1.13;;
13704;SDS011;6924;52.122;9.952;2024-02-16T11:05:33;2.67;;;1.20;;
13704;SDS011;6924;52.122;9.952;2024-02-16T11:08:00;1.80;;;1.10;;
13704;SDS011;6924;52.122;9.952;2024-02-16T11:10:27;1.17;;;1.00;;
13704;SDS011;6924;52.122;9.952;2024-02-16T11:12:55;1.30;;;1.10;;
13704;SDS011;6924;52.122;9.952;2024-02-16T11:15:27;2.80;;;1.10;;
13704;SDS011;6924;52.122;9.952;2024-02-16T11:17:55;1.87;;;0.93;;
13704;SDS011;6924;52.122;9.952;2024-02-16T11:20:23;3.57;;;0.93;;
13704;SDS011;6924;52.122;9.952;2024-02-16T11:22:50;1.53;;;1.10;;
13704;SDS011;6924;52.122;9.952;2024-02-16T11:25:18;3.60;;;1.23;;
13704;SDS011;6924;52.122;9.952;2024-02-16T11:27:45;2.03;;;1.17;;
13704;SDS011;6924;52.122;9.952;2024-02-16T11:30:14;1.00;;;0.90;;
13704;SDS011;6924;52.122;9.952;2024-02-16T11:32:42;4.00;;;1.10;;
13704;SDS011;6924;52.122;9.952;2024-02-16T11:35:09;3.30;;;1.00;;
13704;SDS011;6924;52.122;9.952;2024-02-16T11:37:36;1.10;;;1.00;;
13704;SDS011;6924;52.122;9.952;2024-02-16T11:40:03;0.80;;;0.80;;
13704;SDS011;6924;52.122;9.952;2024-02-16T11:42:33;1.03;;;0.87;;
13704;SDS011;6924;52.122;9.952;2024-02-16T11:45:00;2.43;;;1.10;;
13704;SDS011;6924;52.122;9.952;2024-02-16T11:47:28;2.30;;;1.10;;
13704;SDS011;6924;52.122;9.952;2024-02-16T11:50:02;1.43;;;1.00;;
13704;SDS011;6924;52.122;9.952;2024-02-16T11:52:29;3.20;;;1.23;;
13704;SDS011;6924;52.122;9.952;2024-02-16T11:54:56;1.20;;;1.10;;
13704;SDS011;6924;52.122;9.952;2024-02-16T11:57:25;3.50;;;2.87;;
13704;SDS011;6924;52.122;9.952;2024-02-16T11:59:52;5.63;;;4.37;;
13704;SDS011;6924;52.122;9.952;2024-02-16T12:02:19;10.47;;;8.17;;
13704;SDS011;6924;52.122;9.952;2024-02-16T12:04:48;28.47;;;18.03;;
13704;SDS011;6924;52.122;9.952;2024-02-16T12:07:25;14.93;;;11.03;;
13704;SDS011;6924;52.122;9.952;2024-02-16T12:09:54;4.60;;;3.77;;
13704;SDS011;6924;52.122;9.952;2024-02-16T12:12:22;3.87;;;3.53;;
13704;SDS011;6924;52.122;9.952;2024-02-16T12:14:49;3.07;;;2.30;;
13704;SDS011;6924;52.122;9.952;2024-02-16T12:17:15;1.47;;;1.23;;
13704;SDS011;6924;52.122;9.952;2024-02-16T12:19:43;3.47;;;1.17;;
13704;SDS011;6924;52.122;9.952;2024-02-16T12:22:11;1.37;;;1.10;;
13704;SDS011;6924;52.122;9.952;2024-02-16T12:24:42;2.87;;;1.47;;
13704;SDS011;6924;52.122;9.952;2024-02-16T12:27:09;1.73;;;0.90;;
13704;SDS011;6924;52.122;9.952;2024-02-16T12:29:35;1.13;;;0.90;;
13704;SDS011;6924;52.122;9.952;2024-02-16T12:32:02;3.23;;;1.17;;
13704;SDS011;6924;52.122;9.952;2024-02-16T12:34:28;1.57;;;1.10;;
13704;SDS011;6924;52.122;9.952;2024-02-16T12:36:55;1.70;;;0.97;;
13704;SDS011;6924;52.122;9.952;2024-02-16T12:39:22;2.90;;;1.30;;
13704;SDS011;6924;52.122;9.952;2024-02-16T12:41:49;2.27;;;1.13;;
13704;SDS011;6924;52.122;9.952;2024-02-16T12:44:17;1.57;;;1.00;;
13704;SDS011;6924;52.122;9.952;2024-02-16T12:46:44;1.73;;;1.47;;
13704;SDS011;6924;52.122;9.952;2024-02-16T12:49:10;1.60;;;0.90;;
13704;SDS011;6924;52.122;9.952;2024-02-16T12:51:37;1.80;;;1.20;;
13704;SDS011;6924;52.122;9.952;2024-02-16T12:54:03;2.60;;;1.40;;
13704;SDS011;6924;52.122;9.952;2024-02-16T12:56:31;1.03;;;1.00;;
13704;SDS011;6924;52.122;9.952;2024-02-16T12:58:57;3.03;;;1.50;;
13704;SDS011;6924;52.122;9.952;2024-02-16T13:01:26;2.47;;;1.47;;
13704;SDS011;6924;52.122;9.952;2024-02-16T13:03:53;1.50;;;1.13;;
13704;SDS011;6924;52.122;9.952;2024-02-16T13:06:19;3.27;;;1.63;;
13704;SDS011;6924;52.122;9.952;2024-02-16T13:08:45;2.07;;;1.10;;
13704;SDS011;6924;52.122;9.952;2024-02-16T13:11:12;2.37;;;1.20;;
13704;SDS011;6924;52.122;9.952;2024-02-16T13:13:40;1.83;;;1.33;;
13704;SDS011;6924;52.122;9.952;2024-02-16T13:16:06;4.60;;;1.30;;
13704;SDS011;6924;52.122;9.952;2024-02-16T13:18:33;3.03;;;1.47;;
13704;SDS011;6924;52.122;9.952;2024-02-16T13:21:00;2.37;;;1.30;;
13704;SDS011;6924;52.122;9.952;2024-02-16T13:23:26;1.67;;;1.30;;
13704;SDS011;6924;52.122;9.952;2024-02-16T13:25:54;1.43;;;1.27;;
13704;SDS011;6924;52.122;9.952;2024-02-16T13:28:20;2.73;;;1.23;;
13704;SDS011;6924;52.122;9.952;2024-02-16T13:30:48;1.67;;;1.37;;
13704;SDS011;6924;52.122;9.952;2024-02-16T13:33:14;2.00;;;1.90;;
13704;SDS011;6924;52.122;9.952;2024-02-16T13:35:40;7.20;;;1.60;;
13704;SDS011;6924;52.122;9.952;2024-02-16T13:38:07;4.97;;;1.67;;
13704;SDS011;6924;52.122;9.952;2024-02-16T13:40:33;1.97;;;1.20;;
13704;SDS011;6924;52.122;9.952;2024-02-16T13:43:00;1.80;;;1.23;;
13704;SDS011;6924;52.122;9.952;2024-02-16T13:45:28;2.93;;;1.40;;
13704;SDS011;6924;52.122;9.952;2024-02-16T13:48:12;3.27;;;1.80;;
13704;SDS011;6924;52.122;9.952;2024-02-16T13:50:39;1.53;;;1.20;;
13704;SDS011;6924;52.122;9.952;2024-02-16T13:53:05;2.43;;;1.73;;
13704;SDS011;6924;52.122;9.952;2024-02-16T13:55:32;3.23;;;1.57;;
13704;SDS011;6924;52.122;9.952;2024-02-16T13:57:58;2.77;;;1.70;;
13704;SDS011;6924;52.122;9.952;2024-02-16T14:00:24;8.20;;;1.57;;
13704;SDS011;6924;52.122;9.952;2024-02-16T14:02:51;3.80;;;1.93;;
13704;SDS011;6924;52.122;9.952;2024-02-16T14:05:19;2.60;;;1.57;;
13704;SDS011;6924;52.122;9.952;2024-02-16T14:07:47;2.93;;;1.77;;
13704;SDS011;6924;52.122;9.952;2024-02-16T14:10:13;2.70;;;1.77;;
13704;SDS011;6924;52.122;9.952;2024-02-16T14:12:40;2.60;;;1.77;;
13704;SDS011;6924;52.122;9.952;2024-02-16T14:15:06;2.43;;;1.60;;
13704;SDS011;6924;52.122;9.952;2024-02-16T14:17:40;2.00;;;1.80;;
13704;SDS011;6924;52.122;9.952;2024-02-16T14:20:06;4.87;;;1.80;;
13704;SDS011;6924;52.122;9.952;2024-02-16T14:22:34;2.43;;;1.60;;
13704;SDS011;6924;52.122;9.952;2024-02-16T14:25:00;2.43;;;1.50;;
13704;SDS011;6924;52.122;9.952;2024-02-16T14:27:28;5.93;;;1.73;;
13704;SDS011;6924;52.122;9.952;2024-02-16T14:29:55;1.87;;;1.47;;
13704;SDS011;6924;52.122;9.952;2024-02-16T14:32:21;2.70;;;2.20;;
13704;SDS011;6924;52.122;9.952;2024-02-16T14:34:47;3.70;;;1.87;;
13704;SDS011;6924;52.122;9.952;2024-02-16T14:37:14;3.93;;;1.60;;
13704;SDS011;6924;52.122;9.952;2024-02-16T14:39:42;6.60;;;2.03;;
13704;SDS011;6924;52.122;9.952;2024-02-16T14:42:08;3.70;;;1.67;;
13704;SDS011;6924;52.122;9.952;2024-02-16T14:44:34;2.17;;;1.97;;
13704;SDS011;6924;52.122;9.952;2024-02-16T14:47:01;2.30;;;1.50;;
13704;SDS011;6924;52.122;9.952;2024-02-16T14:49:27;5.27;;;1.90;;
13704;SDS011;6924;52.122;9.952;2024-02-16T14:51:56;2.33;;;1.73;;
13704;SDS011;6924;52.122;9.952;2024-02-16T14:54:22;2.30;;;1.53;;
13704;SDS011;6924;52.122;9.952;2024-02-16T14:56:51;5.27;;;2.00;;
13704;SDS011;6924;52.122;9.952;2024-02-16T14:59:18;2.73;;;1.67;;